Time;durP1;ratioP1;P1;durP2;ratioP2;P2;SDS_P1;SDS_P2;PMS_P1;PMS_P2;Temp;Humidity;BMP_temperature;BMP_pressure;BME280_temperature;BME280_humidity;BME280_pressure;Samples;Min_cycle;Max_cycle;Signal;HPM_P1;HPM_P2
2023/06/15 00:01:27;;;;;;;;;;;;;;;25.03;34.33;101203.72;4112013;28;20009;-66
2023/06/15 00:03:29;;;;;;;;;;;;;;;25.01;34.49;101205.69;4110996;28;19929;-66
2023/06/15 00:05:31;;;;;;;;;;;;;;;25.01;34.46;101202.97;4112817;28;19926;-65
2023/06/15 00:07:32;;;;;;;;;;;;;;;25.00;34.42;101203.97;4119210;28;19926;-65
2023/06/15 00:09:34;;;;;;;;;;;;;;;25.00;34.52;101203.97;4129233;28;19932;-65
2023/06/15 00:11:35;;;;;;;;;;;;;;;25.00;34.77;101198.59;4129333;28;20407;-66
2023/06/15 00:13:37;;;;;;;;;;;;;;;24.98;34.65;101205.97;4128432;28;19926;-66
2023/06/15 00:15:39;;;;;;;;;;;;;;;24.98;34.63;101205.97;4129129;28;19961;-65
2023/06/15 00:17:41;;;;;;;;;;;;;;;24.97;34.63;101208.78;4129049;28;20012;-66
2023/06/15 00:19:46;;;;;;;;;;;;;;;24.97;34.41;101206.06;4128663;28;19973;-65
2023/06/15 00:21:48;;;;;;;;;;;;;;;24.96;35.02;101209.75;4128923;28;19987;-65
2023/06/15 00:23:49;;;;;;;;;;;;;;;24.95;34.84;101205.38;4142969;28;19925;-65
2023/06/15 00:25:51;;;;;;;;;;;;;;;24.93;34.49;101208.19;4128968;28;19925;-65
2023/06/15 00:27:52;;;;;;;;;;;;;;;24.91;34.92;101206.63;4114791;28;20292;-65
2023/06/15 00:29:54;;;;;;;;;;;;;;;24.91;35.08;101212.00;4112886;28;19931;-65
2023/06/15 00:31:56;;;;;;;;;;;;;;;24.89;34.79;101214.84;4112754;28;19926;-65
2023/06/15 00:33:57;;;;;;;;;;;;;;;24.87;34.59;101208.75;4112565;28;20244;-65
2023/06/15 00:35:59;;;;;;;;;;;;;;;24.86;34.67;101215.97;4115786;28;19931;-65
2023/06/15 00:38:01;;;;;;;;;;;;;;;24.87;34.81;101215.00;4115646;28;19934;-66
2023/06/15 00:40:05;;;;;;;;;;;;;;;24.86;34.96;101217.78;4120243;28;20024;-65
2023/06/15 00:42:07;;;;;;;;;;;;;;;24.85;34.88;101224.19;4119303;28;19926;-66
2023/06/15 00:44:09;;;;;;;;;;;;;;;24.84;35.02;101226.00;4114578;28;19926;-66
2023/06/15 00:46:12;;;;;;;;;;;;;;;24.83;34.93;101224.31;4115913;28;19957;-66
2023/06/15 00:48:14;;;;;;;;;;;;;;;24.82;35.05;101219.06;4115264;28;20446;-65
2023/06/15 00:50:19;;;;;;;;;;;;;;;24.80;35.34;101221.91;4115454;28;19926;-65
2023/06/15 00:52:21;;;;;;;;;;;;;;;24.80;35.00;101219.22;4115373;28;19926;-65
2023/06/15 00:54:24;;;;;;;;;;;;;;;24.80;35.11;101223.72;4114586;28;20295;-65
2023/06/15 00:56:29;;;;;;;;;;;;;;;24.79;35.35;101220.19;4115560;28;19968;-65
2023/06/15 00:58:31;;;;;;;;;;;;;;;24.79;35.13;101222.00;4115626;28;20003;-65
2023/06/15 01:00:36;;;;;;;;;;;;;;;24.78;35.41;101220.34;4115412;28;19934;-65
2023/06/15 01:02:39;;;;;;;;;;;;;;;24.77;35.25;101222.16;4115183;28;19958;-65
2023/06/15 01:04:41;;;;;;;;;;;;;;;24.75;35.11;101215.22;4114604;28;20391;-63
2023/06/15 01:06:51;;;;;;;;;;;;;;;24.76;35.16;101219.59;4115348;28;19965;-65
2023/06/15 01:08:53;;;;;;;;;;;;;;;24.76;35.11;101211.53;4131214;28;19969;-65
2023/06/15 01:10:56;;;;;;;;;;;;;;;24.74;35.49;101216.19;4131441;28;19929;-65
2023/06/15 01:12:59;;;;;;;;;;;;;;;24.74;35.29;101213.50;4131258;28;20298;-65
2023/06/15 01:15:01;;;;;;;;;;;;;;;24.72;35.06;101214.50;4130137;28;19972;-65
2023/06/15 01:17:06;;;;;;;;;;;;;;;24.71;35.40;101210.09;4130880;28;19926;-65
2023/06/15 01:19:21;;;;;;;;;;;;;;;24.72;35.26;101216.34;4131305;28;19926;-64
2023/06/15 01:21:29;;;;;;;;;;;;;;;24.71;35.31;101210.09;4131351;28;20292;-64
2023/06/15 01:23:50;;;;;;;;;;;;;;;24.71;35.58;101206.56;4129430;28;20003;-65
2023/06/15 01:26:11;;;;;;;;;;;;;;;24.70;35.40;101210.22;4131329;28;19930;-65
2023/06/15 01:28:15;;;;;;;;;;;;;;;24.69;35.44;101219.28;4099045;29;19927;-64
2023/06/15 01:30:17;;;;;;;;;;;;;;;24.69;35.45;101225.53;4099005;29;19930;-65
2023/06/15 01:32:19;;;;;;;;;;;;;;;24.68;35.59;101225.63;4098879;29;19926;-64
2023/06/15 01:34:21;;;;;;;;;;;;;;;24.68;35.34;101222.94;4098285;28;19980;-65
2023/06/15 01:36:22;;;;;;;;;;;;;;;24.67;35.44;101219.44;4099240;28;19926;-65
2023/06/15 01:38:25;;;;;;;;;;;;;;;24.67;35.65;101219.44;4099240;28;19926;-65
2023/06/15 01:40:28;;;;;;;;;;;;;;;24.66;35.45;101215.03;4114508;28;19926;-65
2023/06/15 01:42:29;;;;;;;;;;;;;;;24.66;35.47;101216.88;4115692;28;19984;-66
2023/06/15 01:44:31;;;;;;;;;;;;;;;24.65;35.72;101217.81;4113873;28;20025;-65
2023/06/15 01:46:33;;;;;;;;;;;;;;;24.65;35.72;101220.53;4113873;28;20378;-66
2023/06/15 01:48:36;;;;;;;;;;;;;;;24.64;35.55;101225.06;4114894;28;19977;-67
2023/06/15 01:50:38;;;;;;;;;;;;;;;24.64;35.45;101227.75;4114957;28;19933;-66
2023/06/15 01:52:40;;;;;;;;;;;;;;;24.62;35.80;101220.78;4114617;28;20350;-66
2023/06/15 01:54:41;;;;;;;;;;;;;;;24.62;35.62;101223.47;4113784;28;19926;-66
2023/06/15 01:56:43;;;;;;;;;;;;;;;24.62;35.66;101229.72;4114644;28;19926;-66
2023/06/15 01:58:45;;;;;;;;;;;;;;;24.62;35.82;101226.16;4114850;28;19969;-67
2023/06/15 02:00:47;;;;;;;;;;;;;;;24.60;35.74;101226.28;4114772;28;19933;-66
2023/06/15 02:02:48;;;;;;;;;;;;;;;24.60;35.98;101226.28;4114711;28;19934;-66
2023/06/15 02:04:50;;;;;;;;;;;;;;;24.59;35.74;101221.06;4113825;28;19934;-67
2023/06/15 02:06:52;;;;;;;;;;;;;;;24.59;36.07;101221.91;4115533;28;20407;-66
2023/06/15 02:08:53;;;;;;;;;;;;;;;24.58;35.92;101225.56;4130820;28;20020;-66
2023/06/15 02:10:55;;;;;;;;;;;;;;;24.58;35.98;101222.03;4130744;28;20311;-66
2023/06/15 02:12:57;;;;;;;;;;;;;;;24.58;35.69;101224.72;4130775;28;19980;-66
2023/06/15 02:15:02;;;;;;;;;;;;;;;24.57;35.67;101226.59;4129402;28;19926;-65
2023/06/15 02:17:05;;;;;;;;;;;;;;;24.55;35.80;101221.31;4130741;28;19926;-65
2023/06/15 02:19:06;;;;;;;;;;;;;;;24.55;36.10;101217.78;4130552;28;20395;-66
2023/06/15 02:21:08;;;;;;;;;;;;;;;24.54;35.89;101222.28;4130493;28;19930;-65
2023/06/15 02:23:10;;;;;;;;;;;;;;;24.54;36.10;101224.97;4130455;28;19926;-65
2023/06/15 02:25:12;;;;;;;;;;;;;;;24.53;35.87;101217.94;4129818;28;19972;-65
2023/06/15 02:27:14;;;;;;;;;;;;;;;24.53;36.07;101219.75;4121646;28;20256;-66
2023/06/15 02:29:16;;;;;;;;;;;;;;;24.52;36.19;101220.72;4113765;28;19968;-64
2023/06/15 02:31:17;;;;;;;;;;;;;;;24.51;36.26;101227.97;4114444;28;19932;-65
2023/06/15 02:33:19;;;;;;;;;;;;;;;24.51;36.19;101224.41;4114167;28;20021;-65
2023/06/15 02:35:21;;;;;;;;;;;;;;;24.49;35.99;101221.84;4113678;28;20388;-65
2023/06/15 02:37:23;;;;;;;;;;;;;;;24.49;36.01;101221.84;4114231;28;20009;-65
2023/06/15 02:39:24;;;;;;;;;;;;;;;24.50;36.09;101228.09;4114137;28;19953;-65
2023/06/15 02:41:31;;;;;;;;;;;;;;;24.48;36.27;101224.69;4105411;28;19926;-65
2023/06/15 02:43:32;;;;;;;;;;;;;;;24.47;36.33;101222.97;4113942;28;19952;-65
2023/06/15 02:45:34;;;;;;;;;;;;;;;24.48;36.07;101224.69;4113158;28;19926;-65
2023/06/15 02:47:36;;;;;;;;;;;;;;;24.46;36.20;101213.19;4113186;28;20097;-65
2023/06/15 02:49:37;;;;;;;;;;;;;;;24.45;36.32;101222.25;4114171;28;19945;-66
2023/06/15 02:51:39;;;;;;;;;;;;;;;24.45;36.44;101225.81;4114143;28;19972;-65
2023/06/15 02:53:47;;;;;;;;;;;;;;;24.45;36.26;101219.56;4113107;28;19937;-66
2023/06/15 02:55:53;;;;;;;;;;;;;;;24.44;36.58;101218.72;4113978;28;20009;-65
2023/06/15 02:58:00;;;;;;;;;;;;;;;24.44;36.24;101220.56;4112493;28;19965;-65
2023/06/15 03:00:03;;;;;;;;;;;;;;;24.43;36.21;101227.75;4114180;28;19926;-65
2023/06/15 03:02:05;;;;;;;;;;;;;;;24.42;36.28;101219.84;4114016;28;20017;-65
2023/06/15 03:04:09;;;;;;;;;;;;;;;24.43;36.26;101233.13;4113198;28;20307;-64
2023/06/15 03:06:14;;;;;;;;;;;;;;;24.42;36.32;101226.06;4113863;28;20350;-65
2023/06/15 03:08:16;;;;;;;;;;;;;;;24.40;36.28;101225.34;4125729;28;19929;-65
2023/06/15 03:10:18;;;;;;;;;;;;;;;24.40;36.16;101230.72;4129851;28;19926;-65
2023/06/15 03:12:20;;;;;;;;;;;;;;;24.40;36.31;101222.66;4129884;28;19972;-65
2023/06/15 03:14:21;;;;;;;;;;;;;;;24.39;36.50;101221.81;4129009;28;20317;-65
2023/06/15 03:16:25;;;;;;;;;;;;;;;24.39;36.19;101226.34;4129887;28;19926;-65
2023/06/15 03:18:31;;;;;;;;;;;;;;;24.37;36.50;101233.66;4129876;28;20060;-65
2023/06/15 03:20:32;;;;;;;;;;;;;;;24.38;36.39;101230.00;4129794;28;19956;-66
2023/06/15 03:22:35;;;;;;;;;;;;;;;24.37;36.39;101229.13;4129746;28;20029;-65
2023/06/15 03:24:36;;;;;;;;;;;;;;;24.36;36.41;101229.28;4129096;28;20295;-65
2023/06/15 03:26:38;;;;;;;;;;;;;;;24.36;36.43;101235.53;4125623;28;20306;-66
2023/06/15 03:28:40;;;;;;;;;;;;;;;24.35;36.76;101231.13;4113232;28;20435;-65
2023/06/15 03:30:41;;;;;;;;;;;;;;;24.35;36.64;101232.94;4113363;28;19933;-64
2023/06/15 03:32:44;;;;;;;;;;;;;;;24.34;36.69;101237.47;4113521;28;19933;-65
2023/06/15 03:34:45;;;;;;;;;;;;;;;24.34;36.45;101231.22;4112644;28;19933;-65
2023/06/15 03:36:51;;;;;;;;;;;;;;;24.33;36.52;101230.41;4113583;28;19930;-65
2023/06/15 03:38:52;;;;;;;;;;;;;;;24.32;36.43;101231.38;4112284;28;20385;-65
2023/06/15 03:40:54;;;;;;;;;;;;;;;24.32;36.63;101233.22;4158380;28;20322;-66
2023/06/15 03:42:55;;;;;;;;;;;;;;;24.32;36.57;101236.75;4113070;28;20367;-65
2023/06/15 03:44:57;;;;;;;;;;;;;;;24.32;36.61;101238.59;4112749;28;19930;-65
2023/06/15 03:46:58;;;;;;;;;;;;;;;24.31;36.52;101235.03;4113441;28;19932;-66
2023/06/15 03:49:00;;;;;;;;;;;;;;;24.31;36.59;101242.28;4113465;28;19926;-65
2023/06/15 03:51:01;;;;;;;;;;;;;;;24.31;36.84;101245.78;4112133;28;19962;-65
2023/06/15 03:53:03;;;;;;;;;;;;;;;24.30;36.72;101241.41;4113320;28;19926;-65
2023/06/15 03:55:05;;;;;;;;;;;;;;;24.29;36.59;101244.22;4112451;28;19926;-65
2023/06/15 03:57:07;;;;;;;;;;;;;;;24.29;36.64;101242.41;4113199;28;19934;-65
2023/06/15 03:59:09;;;;;;;;;;;;;;;24.29;36.69;101244.22;4113161;28;19926;-65
2023/06/15 04:01:12;;;;;;;;;;;;;;;24.28;36.72;101243.38;4113223;28;20006;-65
2023/06/15 04:03:14;;;;;;;;;;;;;;;24.29;36.70;101238.84;4113267;28;19980;-65
2023/06/15 04:05:17;;;;;;;;;;;;;;;24.27;36.71;101240.84;4112333;28;19983;-64
2023/06/15 04:07:19;;;;;;;;;;;;;;;24.26;37.01;101241.81;4117678;28;19926;-64
2023/06/15 04:09:21;;;;;;;;;;;;;;;24.27;36.95;101244.38;4128857;28;19926;-64
2023/06/15 04:11:23;;;;;;;;;;;;;;;24.26;36.76;101244.50;4128960;28;20295;-65
2023/06/15 04:13:25;;;;;;;;;;;;;;;24.25;37.01;101254.38;4129388;28;20349;-65
2023/06/15 04:15:26;;;;;;;;;;;;;;;24.24;36.78;101247.31;4128286;28;19926;-64
2023/06/15 04:17:28;;;;;;;;;;;;;;;24.23;36.89;101256.38;4129150;28;19926;-65
2023/06/15 04:19:30;;;;;;;;;;;;;;;24.24;37.08;101252.69;4128164;28;19926;-64
2023/06/15 04:21:32;;;;;;;;;;;;;;;24.23;37.04;101259.06;4129220;28;19961;-65
2023/06/15 04:23:34;;;;;;;;;;;;;;;24.23;36.87;101256.38;4129188;28;19978;-64
2023/06/15 04:25:37;;;;;;;;;;;;;;;24.24;36.87;101261.59;4127676;28;19926;-65
2023/06/15 04:27:39;;;;;;;;;;;;;;;24.21;36.82;101259.16;4117018;28;20013;-65
2023/06/15 04:29:45;;;;;;;;;;;;;;;24.22;36.94;101266.25;4112711;28;19926;-65
2023/06/15 04:31:54;;;;;;;;;;;;;;;24.22;37.04;101268.94;4112380;28;20214;-64
2023/06/15 04:33:58;;;;;;;;;;;;;;;24.21;36.81;101266.41;4112912;28;19933;-65
2023/06/15 04:36:01;;;;;;;;;;;;;;;24.20;37.01;101262.00;4112103;28;19926;-64
2023/06/15 04:38:05;;;;;;;;;;;;;;;24.19;36.92;101266.53;4113041;28;19934;-65
2023/06/15 04:40:09;;;;;;;;;;;;;;;24.20;37.27;101272.75;4117291;28;19936;-65
2023/06/15 04:42:11;;;;;;;;;;;;;;;24.19;37.04;101268.34;4116127;28;19937;-64
2023/06/15 04:44:13;;;;;;;;;;;;;;;24.18;36.88;101263.94;4112148;28;19926;-65
2023/06/15 04:46:15;;;;;;;;;;;;;;;24.19;37.10;101269.22;4112734;28;19926;-65
2023/06/15 04:48:17;;;;;;;;;;;;;;;24.19;36.98;101271.03;4112909;28;19948;-65
2023/06/15 04:50:21;;;;;;;;;;;;;;;24.18;37.14;101269.31;4112929;28;19957;-65
2023/06/15 04:52:23;;;;;;;;;;;;;;;24.18;36.95;101278.25;4112551;28;20032;-64
2023/06/15 04:54:25;;;;;;;;;;;;;;;24.17;37.13;101273.88;4110453;28;20032;-65
2023/06/15 04:56:26;;;;;;;;;;;;;;;24.17;37.05;101283.75;4111273;28;19945;-66
2023/06/15 04:58:28;;;;;;;;;;;;;;;24.17;37.00;101281.94;4112739;28;20544;-65
2023/06/15 05:00:29;;;;;;;;;;;;;;;24.16;37.19;101279.38;4112759;28;20307;-65
2023/06/15 05:02:34;;;;;;;;;;;;;;;24.16;37.18;101279.38;4112784;28;19938;-66
2023/06/15 05:04:35;;;;;;;;;;;;;;;24.15;37.19;101277.66;4111663;28;19926;-65
2023/06/15 05:06:37;;;;;;;;;;;;;;;24.15;37.21;101281.19;4112428;28;19934;-65
2023/06/15 05:08:39;;;;;;;;;;;;;;;24.15;36.90;101280.34;4127445;28;19926;-66
2023/06/15 05:10:40;;;;;;;;;;;;;;;24.14;37.13;101282.16;4128575;28;19926;-65
2023/06/15 05:12:47;;;;;;;;;;;;;;;24.13;37.01;101283.16;4128627;28;19929;-64
2023/06/15 05:14:48;;;;;;;;;;;;;;;24.12;37.00;101284.16;4127839;28;19937;-65
2023/06/15 05:16:50;;;;;;;;;;;;;;;24.13;37.32;101293.06;4128571;28;19926;-64
2023/06/15 05:18:54;;;;;;;;;;;;;;;24.12;37.20;101294.91;4128599;28;20025;-65
2023/06/15 05:20:56;;;;;;;;;;;;;;;24.12;37.18;101286.84;4129274;28;19987;-65
2023/06/15 05:22:57;;;;;;;;;;;;;;;24.13;37.00;101291.22;4130837;28;19930;-66
2023/06/15 05:24:59;;;;;;;;;;;;;;;24.13;37.06;101298.44;4130462;28;20041;-65
2023/06/15 05:27:02;;;;;;;;;;;;;;;24.12;37.15;101294.91;4124137;28;19926;-65
2023/06/15 05:29:03;;;;;;;;;;;;;;;24.13;37.04;101298.44;4115081;28;19927;-65
2023/06/15 05:31:08;;;;;;;;;;;;;;;24.12;37.38;101302.97;4114826;28;19973;-65
2023/06/15 05:33:10;;;;;;;;;;;;;;;24.12;37.07;101294.91;4115313;28;20378;-67
2023/06/15 05:35:11;;;;;;;;;;;;;;;24.11;37.21;101297.69;4114261;28;20366;-66
2023/06/15 05:37:13;;;;;;;;;;;;;;;24.11;37.19;101303.06;4114967;28;19930;-65
2023/06/15 05:39:14;;;;;;;;;;;;;;;24.10;37.08;101304.94;4114702;28;19953;-66
2023/06/15 05:41:16;;;;;;;;;;;;;;;24.11;37.35;101306.63;4123682;28;19995;-66
2023/06/15 05:43:19;;;;;;;;;;;;;;;24.11;37.35;101305.75;4115154;28;19965;-65
2023/06/15 05:45:21;;;;;;;;;;;;;;;24.11;37.05;101308.44;4114220;28;19946;-66
2023/06/15 05:47:23;;;;;;;;;;;;;;;24.08;37.16;101301.50;4114009;28;19927;-66
2023/06/15 05:49:25;;;;;;;;;;;;;;;24.09;37.15;101306.75;4114793;28;20281;-66
2023/06/15 05:51:26;;;;;;;;;;;;;;;24.09;37.07;101309.44;4114889;28;19934;-66
2023/06/15 05:53:28;;;;;;;;;;;;;;;24.09;36.96;101308.59;4114341;28;20001;-66
2023/06/15 05:55:30;;;;;;;;;;;;;;;24.08;36.80;101317.63;4113979;28;20009;-66
2023/06/15 05:57:31;;;;;;;;;;;;;;;24.07;36.96;101311.41;4114855;28;19926;-65
2023/06/15 05:59:33;;;;;;;;;;;;;;;24.07;37.03;101322.16;4114604;28;19933;-65
2023/06/15 06:01:35;;;;;;;;;;;;;;;24.06;37.17;101320.44;4115076;28;19933;-65
2023/06/15 06:03:36;;;;;;;;;;;;;;;24.07;37.05;101313.22;4114872;28;19926;-66
2023/06/15 06:05:38;;;;;;;;;;;;;;;24.06;37.04;101316.91;4113864;28;19965;-65
2023/06/15 06:07:40;;;;;;;;;;;;;;;23.96;36.90;101300.69;4121610;28;20074;-65
2023/06/15 06:09:42;;;;;;;;;;;;;;;24.06;37.10;101316.91;4130873;28;19925;-65
2023/06/15 06:11:45;;;;;;;;;;;;;;;24.06;36.93;101315.06;4130704;28;20336;-66
2023/06/15 06:13:47;;;;;;;;;;;;;;;24.07;37.06;101315.91;4130907;28;20009;-66
2023/06/15 06:15:48;;;;;;;;;;;;;;;24.07;37.00;101315.91;4129852;28;19930;-66
2023/06/15 06:17:50;;;;;;;;;;;;;;;24.06;37.00;101312.38;4130576;28;19926;-66
2023/06/15 06:20:08;;;;;;;;;;;;;;;24.06;37.05;101315.06;4130690;28;20339;-65
2023/06/15 06:22:10;;;;;;;;;;;;;;;24.06;37.02;101309.69;4130381;28;19979;-65
2023/06/15 06:24:11;;;;;;;;;;;;;;;24.07;36.99;101310.53;4130790;28;19953;-65
2023/06/15 06:26:13;;;;;;;;;;;;;;;24.06;37.11;101317.75;4128851;28;19925;-66
2023/06/15 06:28:15;;;;;;;;;;;;;;;24.07;37.22;101318.59;4114455;28;19996;-66
2023/06/15 06:30:16;;;;;;;;;;;;;;;24.07;37.02;101321.28;4114188;28;19926;-65
2023/06/15 06:32:18;;;;;;;;;;;;;;;24.07;36.87;101322.16;4114060;28;19934;-65
2023/06/15 06:34:19;;;;;;;;;;;;;;;24.07;36.94;101322.16;4114314;28;19926;-64
2023/06/15 06:36:21;;;;;;;;;;;;;;;24.06;37.02;101325.81;4113161;28;19938;-65
2023/06/15 06:38:22;;;;;;;;;;;;;;;24.06;37.21;101331.19;4113000;28;19926;-64
2023/06/15 06:40:25;;;;;;;;;;;;;;;24.07;36.92;101332.03;4121676;28;19926;-65
2023/06/15 06:42:27;;;;;;;;;;;;;;;24.06;36.92;101331.19;4115399;28;20013;-66
2023/06/15 06:44:29;;;;;;;;;;;;;;;24.07;37.15;101332.91;4113706;28;19938;-65
2023/06/15 06:46:31;;;;;;;;;;;;;;;24.07;36.91;101337.41;4113885;28;19948;-66
2023/06/15 06:48:32;;;;;;;;;;;;;;;24.07;37.11;101335.59;4112708;28;19926;-66
2023/06/15 06:50:34;;;;;;;;;;;;;;;24.09;37.02;101333.63;4113914;28;20323;-66
2023/06/15 06:52:35;;;;;;;;;;;;;;;24.11;37.26;101340.69;4114258;28;19926;-66
2023/06/15 06:54:37;;;;;;;;;;;;;;;24.09;36.89;101344.38;4113290;28;19926;-66
2023/06/15 06:56:38;;;;;;;;;;;;;;;24.09;37.25;101341.66;4114049;28;20288;-66
2023/06/15 06:58:40;;;;;;;;;;;;;;;24.11;36.98;101343.38;4114113;28;19926;-66
2023/06/15 07:00:42;;;;;;;;;;;;;;;24.12;37.14;101345.09;4114192;28;20378;-65
2023/06/15 07:02:43;;;;;;;;;;;;;;;24.13;37.04;101346.81;4113922;28;19927;-65
2023/06/15 07:04:45;;;;;;;;;;;;;;;24.14;36.82;101345.84;4112923;28;20456;-66
2023/06/15 07:06:47;;;;;;;;;;;;;;;24.15;36.80;101344.84;4112454;28;19929;-65
2023/06/15 07:08:48;;;;;;;;;;;;;;;24.17;36.75;101350.94;4130189;28;19968;-65
2023/06/15 07:10:50;;;;;;;;;;;;;;;24.19;36.79;101348.97;4130125;28;19929;-66
2023/06/15 07:12:55;;;;;;;;;;;;;;;24.20;36.86;101350.69;4130058;28;19926;-66
2023/06/15 07:14:56;;;;;;;;;;;;;;;24.20;37.10;101358.75;4129111;28;19933;-66
2023/06/15 07:16:58;;;;;;;;;;;;;;;24.20;36.76;101356.91;4129592;28;19983;-66
2023/06/15 07:19:00;;;;;;;;;;;;;;;24.22;36.97;101359.50;4129550;28;19926;-66
2023/06/15 07:21:01;;;;;;;;;;;;;;;24.24;36.79;101360.19;4130002;28;19926;-65
2023/06/15 07:23:03;;;;;;;;;;;;;;;24.23;37.04;101362.03;4129750;28;19926;-66
2023/06/15 07:25:04;;;;;;;;;;;;;;;24.26;36.53;101355.56;4128858;28;19925;-66
2023/06/15 07:27:06;;;;;;;;;;;;;;;24.27;36.83;101364.47;4121991;28;19983;-66
2023/06/15 07:29:08;;;;;;;;;;;;;;;24.28;36.72;101353.59;4113691;28;19930;-65
2023/06/15 07:31:09;;;;;;;;;;;;;;;24.29;36.85;101355.31;4113431;28;19949;-66
2023/06/15 07:33:11;;;;;;;;;;;;;;;24.30;36.82;101359.66;4113648;28;19936;-66
2023/06/15 07:35:13;;;;;;;;;;;;;;;24.30;36.78;101358.84;4111541;28;20057;-66
2023/06/15 07:37:15;;;;;;;;;;;;;;;24.31;36.70;101366.75;4113521;28;20346;-66
2023/06/15 07:39:16;;;;;;;;;;;;;;;24.32;36.69;101365.78;4113596;28;20379;-66
2023/06/15 07:41:18;;;;;;;;;;;;;;;24.32;36.73;101373.00;4122102;28;19999;-66
2023/06/15 07:43:20;;;;;;;;;;;;;;;24.32;36.87;101367.63;4113034;28;19926;-66
2023/06/15 07:45:21;;;;;;;;;;;;;;;24.32;36.80;101373.00;4112554;28;19929;-66
2023/06/15 07:47:23;;;;;;;;;;;;;;;24.32;37.07;101368.47;4113558;28;19927;-66
2023/06/15 07:49:24;;;;;;;;;;;;;;;24.33;36.77;101364.81;4113069;28;19937;-66
2023/06/15 07:51:45;;;;;;;;;;;;;;;24.33;36.53;101366.66;4113467;28;19980;-66
2023/06/15 07:54:05;;;;;;;;;;;;;;;24.34;36.97;101365.66;4112598;28;19926;-65
2023/06/15 07:56:06;;;;;;;;;;;;;;;24.34;36.61;101377.28;4112232;28;19926;-66
2023/06/15 07:58:07;;;;;;;;;;;;;;;24.36;36.97;101363.69;4113258;28;20307;-66
2023/06/15 08:00:10;;;;;;;;;;;;;;;24.37;36.93;101371.63;4113321;28;19961;-65
2023/06/15 08:02:11;;;;;;;;;;;;;;;24.38;36.75;101362.56;4113334;28;19932;-65
2023/06/15 08:04:14;;;;;;;;;;;;;;;24.39;36.66;101364.28;4113132;28;20060;-65
2023/06/15 08:06:15;;;;;;;;;;;;;;;24.40;36.64;101374.06;4112487;28;19925;-65
2023/06/15 08:08:17;;;;;;;;;;;;;;;24.41;36.78;101364.16;4125008;28;20296;-65
2023/06/15 08:10:19;;;;;;;;;;;;;;;24.42;36.73;101365.03;4129386;28;19930;-64
2023/06/15 08:12:21;;;;;;;;;;;;;;;24.43;36.97;101377.47;4129311;28;19930;-65
2023/06/15 08:14:23;;;;;;;;;;;;;;;24.43;36.65;101381.00;4129212;28;19952;-64
2023/06/15 08:16:24;;;;;;;;;;;;;;;24.44;36.70;101373.81;4128313;28;19932;-64
2023/06/15 08:18:26;;;;;;;;;;;;;;;24.45;36.69;101378.19;4128883;28;19957;-64
2023/06/15 08:20:28;;;;;;;;;;;;;;;24.44;36.63;101374.66;4129201;28;19960;-65
2023/06/15 08:22:29;;;;;;;;;;;;;;;24.45;36.77;101376.38;4129099;28;19965;-64
2023/06/15 08:24:31;;;;;;;;;;;;;;;24.46;36.80;101374.53;4128969;28;19933;-64
2023/06/15 08:26:33;;;;;;;;;;;;;;;24.46;36.67;101375.41;4124716;28;20033;-65
2023/06/15 08:28:34;;;;;;;;;;;;;;;24.47;36.72;101378.91;4112998;28;19926;-65
2023/06/15 08:30:53;;;;;;;;;;;;;;;24.49;36.83;101376.97;4112784;28;19927;-65
2023/06/15 08:32:54;;;;;;;;;;;;;;;24.50;36.46;101373.31;4112436;28;19948;-64
2023/06/15 08:34:56;;;;;;;;;;;;;;;24.51;36.77;101372.28;4112152;28;19926;-64
2023/06/15 08:36:58;;;;;;;;;;;;;;;24.52;36.65;101372.19;4112848;28;20013;-64
2023/06/15 08:39:00;;;;;;;;;;;;;;;24.52;36.69;101372.19;4113068;28;19930;-65
2023/06/15 08:41:02;;;;;;;;;;;;;;;24.51;36.48;101375.84;4122108;28;19981;-65
2023/06/15 08:43:06;;;;;;;;;;;;;;;24.53;36.70;101378.41;4113216;28;19926;-67
2023/06/15 08:45:08;;;;;;;;;;;;;;;24.54;36.66;101377.41;4112083;28;19930;-66
2023/06/15 08:47:09;;;;;;;;;;;;;;;24.52;36.63;101380.25;4112155;28;20013;-65
2023/06/15 08:49:12;;;;;;;;;;;;;;;24.53;36.42;101381.97;4112961;28;19926;-64
2023/06/15 08:51:13;;;;;;;;;;;;;;;24.53;36.19;101383.78;4112879;28;19948;-65
2023/06/15 08:53:16;;;;;;;;;;;;;;;24.52;36.50;101376.69;4112761;28;19938;-65
2023/06/15 08:55:20;;;;;;;;;;;;;;;24.52;36.45;101382.06;4111881;28;20717;-65
2023/06/15 08:57:22;;;;;;;;;;;;;;;24.51;36.26;101380.34;4115185;28;20264;-64
2023/06/15 08:59:24;;;;;;;;;;;;;;;24.51;36.25;101378.53;4115527;28;19972;-64
2023/06/15 09:01:27;;;;;;;;;;;;;;;24.50;36.58;101373.31;4115117;28;20402;-64
2023/06/15 09:03:29;;;;;;;;;;;;;;;24.52;36.60;101376.69;4115372;28;19934;-66
2023/06/15 09:05:31;;;;;;;;;;;;;;;24.52;36.46;101374.88;4114814;28;19926;-65
2023/06/15 09:07:33;;;;;;;;;;;;;;;24.53;36.36;101375.72;4121598;28;20357;-66
2023/06/15 09:09:35;;;;;;;;;;;;;;;24.54;36.42;101372.88;4131765;28;20042;-66
2023/06/15 09:11:41;;;;;;;;;;;;;;;24.54;36.42;101372.88;4130424;28;20012;-64
2023/06/15 09:13:43;;;;;;;;;;;;;;;24.56;36.48;101373.63;4131744;28;19949;-65
2023/06/15 09:15:57;;;;;;;;;;;;;;;24.56;36.28;101370.94;4130424;28;20339;-64
2023/06/15 09:18:00;;;;;;;;;;;;;;;24.58;36.39;101370.78;4131375;28;19958;-65
2023/06/15 09:20:03;;;;;;;;;;;;;;;24.59;36.56;101372.50;4121175;28;19926;-65
2023/06/15 09:22:07;;;;;;;;;;;;;;;24.61;36.42;101377.78;4115366;28;19980;-61
2023/06/15 09:24:09;;;;;;;;;;;;;;;24.63;36.28;101371.28;4114352;28;20026;-61
2023/06/15 09:26:22;;;;;;;;;;;;;;;24.65;36.38;101373.81;4112614;28;19942;-58
2023/06/15 09:28:27;;;;;;;;;;;;;;;24.69;36.29;101375.28;4114424;28;19927;-59
2023/06/15 09:30:38;;;;;;;;;;;;;;;24.69;36.05;101384.22;4113749;28;20021;-59
2023/06/15 09:32:40;;;;;;;;;;;;;;;24.71;36.31;101376.00;4112802;28;19976;-59
2023/06/15 09:34:54;;;;;;;;;;;;;;;24.72;36.18;101378.56;4114473;28;20356;-60
2023/06/15 09:36:56;;;;;;;;;;;;;;;24.74;36.20;101380.28;4111361;28;19975;-60
2023/06/15 09:38:57;;;;;;;;;;;;;;;24.76;36.29;101383.69;4111023;28;19926;-59
2023/06/15 09:41:05;;;;;;;;;;;;;;;24.78;36.37;101379.06;4122765;28;20323;-59
2023/06/15 09:43:07;;;;;;;;;;;;;;;24.78;36.13;101379.88;4114502;28;20013;-58
2023/06/15 09:45:09;;;;;;;;;;;;;;;24.78;36.55;101373.66;4113474;28;19926;-59
2023/06/15 09:47:15;;;;;;;;;;;;;;;24.78;36.37;101379.06;4114157;28;19926;-59
2023/06/15 09:49:25;;;;;;;;;;;;;;;24.79;36.07;101380.72;4114432;28;19937;-58
2023/06/15 09:51:30;;;;;;;;;;;;;;;24.80;36.08;101371.69;4114189;28;19934;-58
2023/06/15 09:53:33;;;;;;;;;;;;;;;24.81;36.02;101376.06;4113452;28;19980;-58
2023/06/15 09:55:35;;;;;;;;;;;;;;;24.84;35.86;101375.84;4113371;28;19930;-58
2023/06/15 09:57:37;;;;;;;;;;;;;;;24.85;35.92;101372.16;4114076;28;19972;-59
2023/06/15 09:59:38;;;;;;;;;;;;;;;24.88;35.81;101371.88;4113740;28;20033;-58
2023/06/15 10:01:42;;;;;;;;;;;;;;;24.88;36.17;101364.66;4113948;28;19930;-59
2023/06/15 10:03:46;;;;;;;;;;;;;;;24.98;36.88;101370.13;4114239;28;19926;-58
2023/06/15 10:05:49;;;;;;;;;;;;;;;25.04;36.02;101363.31;4113304;28;19934;-58
2023/06/15 10:07:51;;;;;;;;;;;;;;;25.08;35.28;101367.47;4122121;28;20596;-57
2023/06/15 10:09:53;;;;;;;;;;;;;;;25.11;35.12;101360.97;4130113;28;20064;-59
2023/06/15 10:12:02;;;;;;;;;;;;;;;25.10;35.31;101368.16;4112420;28;19926;-58
2023/06/15 10:14:07;;;;;;;;;;;;;;;25.13;35.17;101367.91;4113754;28;19936;-57
2023/06/15 10:16:09;;;;;;;;;;;;;;;25.17;35.16;101369.34;4113124;28;19926;-58
2023/06/15 10:18:12;;;;;;;;;;;;;;;25.25;34.97;101367.81;4113892;28;19975;-56
2023/06/15 10:20:17;;;;;;;;;;;;;;;25.29;34.56;101367.41;4114043;28;20308;-56
2023/06/15 10:22:21;;;;;;;;;;;;;;;25.35;34.46;101371.41;4113858;28;19933;-57
2023/06/15 10:24:25;;;;;;;;;;;;;;;25.38;34.21;101373.84;4113690;28;19972;-58
2023/06/15 10:26:27;;;;;;;;;;;;;;;25.41;34.16;101372.72;4111710;28;19973;-57
2023/06/15 10:28:32;;;;;;;;;;;;;;;25.45;34.32;101374.19;4165484;28;20048;-60
2023/06/15 10:30:36;;;;;;;;;;;;;;;25.49;34.04;101371.06;4175349;28;19928;-58